Time;durP1;ratioP1;P1;durP2;ratioP2;P2;SDS_P1;SDS_P2;PMS_P1;PMS_P2;Temp;Humidity;BMP_temperature;BMP_pressure;BME280_temperature;BME280_humidity;BME280_pressure;Samples;Min_cycle;Max_cycle;Signal;HPM_P1;HPM_P2
2022/05/28 00:01:51;;;;;;;6.30;3.17;;;16.90;47.50;;;;;;5074219;28;20210;-83
2022/05/28 00:04:17;;;;;;;10.63;3.00;;;16.80;47.60;;;;;;5069556;28;20190;-83
2022/05/28 00:06:44;;;;;;;6.50;3.20;;;16.80;46.70;;;;;;5073179;28;20243;-83
2022/05/28 00:09:10;;;;;;;12.03;3.93;;;16.60;47.50;;;;;;5071130;28;20213;-83
2022/05/28 00:11:43;;;;;;;6.60;2.90;;;16.50;47.70;;;;;;5071857;28;20188;-82
2022/05/28 00:14:10;;;;;;;7.97;3.33;;;16.40;47.70;;;;;;5077247;28;20195;-84
2022/05/28 00:16:37;;;;;;;8.20;3.13;;;16.40;47.50;;;;;;5074144;28;20680;-83
2022/05/28 00:19:07;;;;;;;5.50;2.70;;;16.50;47.80;;;;;;5071347;28;20215;-82
2022/05/28 00:21:33;;;;;;;4.97;3.37;;;16.40;47.40;;;;;;5074943;28;20184;-82
2022/05/28 00:23:59;;;;;;;5.50;3.03;;;16.20;48.30;;;;;;5072148;28;20738;-83
2022/05/28 00:26:25;;;;;;;7.73;3.07;;;16.10;49.10;;;;;;5071771;28;20208;-83
2022/05/28 00:28:51;;;;;;;8.43;3.20;;;16.10;49.00;;;;;;5055135;28;20656;-83
2022/05/28 00:31:17;;;;;;;5.40;2.87;;;16.00;49.10;;;;;;5073219;28;20298;-82
2022/05/28 00:33:43;;;;;;;9.30;3.37;;;16.10;49.00;;;;;;5079462;28;20275;-83
2022/05/28 00:36:10;;;;;;;6.50;3.17;;;16.10;49.30;;;;;;5077214;28;20211;-83
2022/05/28 00:38:38;;;;;;;6.97;2.90;;;16.00;48.90;;;;;;5080324;28;20183;-83
2022/05/28 00:41:04;;;;;;;8.57;2.87;;;16.00;49.20;;;;;;5081116;28;20229;-83
2022/05/28 00:43:30;;;;;;;7.50;3.57;;;16.00;49.30;;;;;;5062046;28;20195;-83
2022/05/28 00:46:17;;;;;;;7.60;3.20;;;15.80;49.80;;;;;;5075872;28;20197;-82
2022/05/28 00:48:47;;;;;;;9.67;3.80;;;15.70;50.50;;;;;;5079773;28;20189;-82
2022/05/28 00:51:21;;;;;;;11.53;3.23;;;15.70;50.90;;;;;;5066759;28;20447;-83
2022/05/28 00:53:47;;;;;;;7.23;2.97;;;15.60;51.20;;;;;;5051409;28;20227;-83
2022/05/28 00:56:13;;;;;;;7.73;3.03;;;15.60;51.70;;;;;;5074744;28;20243;-82
2022/05/28 00:58:39;;;;;;;6.10;2.80;;;15.60;51.00;;;;;;5077062;28;20210;-82
2022/05/28 01:01:10;;;;;;;7.80;2.90;;;15.60;51.40;;;;;;5075083;28;20569;-83
2022/05/28 01:03:53;;;;;;;8.73;3.30;;;15.80;51.00;;;;;;5061669;28;20240;-83
2022/05/28 01:06:49;;;;;;;5.50;3.33;;;15.80;50.90;;;;;;5075686;28;20186;-82
2022/05/28 01:09:33;;;;;;;9.63;3.10;;;15.80;50.90;;;;;;5073086;28;20203;-83
2022/05/28 01:12:12;;;;;;;6.57;3.20;;;15.90;51.30;;;;;;5062115;28;20781;-82
2022/05/28 01:14:54;;;;;;;7.30;2.70;;;15.90;51.60;;;;;;5074866;28;20188;-82
2022/05/28 01:17:28;;;;;;;5.27;2.73;;;15.90;51.10;;;;;;5075834;28;20234;-83
2022/05/28 01:20:12;;;;;;;5.53;3.00;;;15.80;51.20;;;;;;5071169;28;20211;-83
2022/05/28 01:22:58;;;;;;;7.30;3.10;;;15.50;51.20;;;;;;5078677;28;20185;-83
2022/05/28 01:25:40;;;;;;;8.37;3.30;;;15.40;52.20;;;;;;5073875;28;20189;-83
2022/05/28 01:28:10;;;;;;;6.87;2.90;;;15.20;52.50;;;;;;5076256;28;20186;-83
2022/05/28 01:30:40;;;;;;;6.30;2.70;;;15.00;52.70;;;;;;5066857;28;20728;-83
2022/05/28 01:33:08;;;;;;;6.83;3.10;;;15.10;53.10;;;;;;5074767;28;20202;-81
2022/05/28 01:35:35;;;;;;;6.50;2.93;;;15.10;53.10;;;;;;5054870;28;20285;-83
2022/05/28 01:38:02;;;;;;;7.00;2.93;;;15.00;53.20;;;;;;5071537;28;20213;-82
2022/05/28 01:40:28;;;;;;;8.37;3.10;;;15.20;52.60;;;;;;5088534;28;20234;-83
2022/05/28 01:42:57;;;;;;;9.43;2.97;;;15.30;52.70;;;;;;5076990;28;20188;-83
2022/05/28 01:45:29;;;;;;;4.17;2.53;;;15.30;53.30;;;;;;5074176;28;20245;-82
2022/05/28 01:47:59;;;;;;;4.40;2.43;;;15.40;53.80;;;;;;5073839;28;20685;-82
2022/05/28 01:50:27;;;;;;;6.30;3.30;;;15.60;52.90;;;;;;5072924;28;20214;-81
2022/05/28 01:52:53;;;;;;;3.63;2.23;;;15.70;51.20;;;;;;5073412;28;20557;-83
2022/05/28 01:55:22;;;;;;;5.27;2.87;;;15.80;54.10;;;;;;5073178;28;20192;-82
2022/05/28 01:57:48;;;;;;;5.80;2.60;;;15.90;53.40;;;;;;5079106;28;20285;-83
2022/05/28 02:00:14;;;;;;;5.20;2.90;;;15.90;51.00;;;;;;5079167;28;20206;-82
2022/05/28 02:02:40;;;;;;;7.27;3.03;;;16.10;51.10;;;;;;5069628;28;20233;-83
2022/05/28 02:05:06;;;;;;;7.50;3.40;;;16.00;50.80;;;;;;5068035;28;20269;-82
2022/05/28 02:07:32;;;;;;;7.40;3.00;;;16.00;51.70;;;;;;5071928;28;20196;-83
2022/05/28 02:10:04;;;;;;;7.17;3.10;;;16.00;51.20;;;;;;5060688;28;20210;-82
2022/05/28 02:12:53;;;;;;;5.90;2.40;;;16.10;51.60;;;;;;5074418;28;20286;-82
2022/05/28 02:15:22;;;;;;;6.17;2.87;;;16.10;53.10;;;;;;5067178;28;20204;-83
2022/05/28 02:17:53;;;;;;;4.00;2.60;;;16.20;53.00;;;;;;5071492;28;20196;-82
2022/05/28 02:20:58;;;;;;;4.53;2.80;;;16.30;53.40;;;;;;5073416;28;20238;-83
2022/05/28 02:23:29;;;;;;;7.43;3.43;;;16.50;50.40;;;;;;5071287;28;20198;-83
2022/05/28 02:26:00;;;;;;;7.27;2.83;;;16.40;50.70;;;;;;5073143;28;20707;-82
2022/05/28 02:28:29;;;;;;;4.43;2.87;;;16.20;51.70;;;;;;5052209;28;20271;-82
2022/05/28 02:31:02;;;;;;;6.63;3.20;;;16.10;52.00;;;;;;5071525;28;20208;-82
2022/05/28 02:33:29;;;;;;;6.23;2.80;;;16.00;51.50;;;;;;5069087;28;20186;-83
2022/05/28 02:35:54;;;;;;;6.00;3.03;;;16.10;52.80;;;;;;5074902;28;20219;-83
2022/05/28 02:38:20;;;;;;;4.97;2.57;;;16.10;52.70;;;;;;5075456;28;20211;-81
2022/05/28 02:40:46;;;;;;;4.80;2.50;;;16.30;52.20;;;;;;5073281;28;20204;-82
2022/05/28 02:43:12;;;;;;;7.13;2.90;;;16.30;53.30;;;;;;5055637;28;20230;-83
2022/05/28 02:45:39;;;;;;;6.20;3.07;;;16.20;51.10;;;;;;5080147;28;20190;-82
2022/05/28 02:48:05;;;;;;;7.20;2.80;;;16.10;51.40;;;;;;5068684;28;20187;-81
2022/05/28 02:50:31;;;;;;;5.00;2.53;;;15.90;49.40;;;;;;5075313;28;20215;-82
2022/05/28 02:52:57;;;;;;;4.27;2.83;;;15.70;48.90;;;;;;5070885;28;20676;-82
2022/05/28 02:55:23;;;;;;;5.40;2.40;;;15.50;48.80;;;;;;5074456;28;20196;-82
2022/05/28 02:57:49;;;;;;;4.57;2.10;;;15.30;48.00;;;;;;5071345;28;20723;-83
2022/05/28 03:00:16;;;;;;;6.33;2.40;;;15.30;48.60;;;;;;5068740;28;20219;-82
2022/05/28 03:02:42;;;;;;;5.27;2.40;;;15.30;47.30;;;;;;5053040;28;20212;-83
2022/05/28 03:05:10;;;;;;;3.23;2.20;;;15.30;47.70;;;;;;5072538;28;20195;-82
2022/05/28 03:07:36;;;;;;;4.17;2.10;;;15.30;47.20;;;;;;5075380;28;20190;-82
2022/05/28 03:10:02;;;;;;;5.67;2.30;;;15.20;46.90;;;;;;5073649;28;20225;-82
2022/05/28 03:12:27;;;;;;;2.83;2.30;;;15.20;47.60;;;;;;5075139;28;20191;-83
2022/05/28 03:14:53;;;;;;;4.77;2.47;;;15.20;47.00;;;;;;5069029;28;20265;-83
2022/05/28 03:17:19;;;;;;;4.20;2.30;;;15.00;46.70;;;;;;5069079;28;20864;-83
2022/05/28 03:19:44;;;;;;;4.20;2.10;;;15.00;47.20;;;;;;5073385;28;20696;-82
2022/05/28 03:22:10;;;;;;;7.00;2.77;;;14.90;48.30;;;;;;5071008;28;20245;-82
2022/05/28 03:24:35;;;;;;;2.40;2.03;;;15.00;47.50;;;;;;5070945;28;20258;-82
2022/05/28 03:27:01;;;;;;;6.43;2.10;;;15.10;49.20;;;;;;5073309;28;20792;-83
2022/05/28 03:29:27;;;;;;;2.60;2.17;;;15.10;49.20;;;;;;5071026;28;20695;-83
2022/05/28 03:31:53;;;;;;;3.87;2.50;;;15.20;49.80;;;;;;5067887;28;20205;-83
2022/05/28 03:34:19;;;;;;;4.13;2.10;;;15.40;50.00;;;;;;5067953;28;20274;-82
2022/05/28 03:36:44;;;;;;;3.33;2.10;;;15.50;48.90;;;;;;5072762;28;20277;-81
2022/05/28 03:39:10;;;;;;;4.70;2.20;;;15.60;49.10;;;;;;5072282;28;20250;-81
2022/05/28 03:41:36;;;;;;;3.47;2.50;;;15.70;49.60;;;;;;5071566;28;20234;-81
2022/05/28 03:44:01;;;;;;;4.37;2.40;;;15.70;48.10;;;;;;5070944;28;20483;-81
2022/05/28 03:46:30;;;;;;;4.60;2.30;;;15.70;48.30;;;;;;5069479;28;20179;-84
2022/05/28 03:49:26;;;;;;;4.43;2.23;;;15.70;49.30;;;;;;5064838;28;20259;-81
2022/05/28 03:51:52;;;;;;;4.97;2.47;;;15.70;48.70;;;;;;5059137;28;20259;-81
2022/05/28 03:54:18;;;;;;;5.00;2.20;;;15.80;49.60;;;;;;5058200;28;20535;-81
2022/05/28 03:56:45;;;;;;;5.30;2.43;;;15.80;50.70;;;;;;5078463;28;20435;-81
2022/05/28 03:59:11;;;;;;;4.50;2.00;;;15.80;49.50;;;;;;5076511;28;20197;-80
2022/05/28 04:01:37;;;;;;;4.10;2.27;;;15.80;48.60;;;;;;5073051;28;20222;-81
2022/05/28 04:04:04;;;;;;;5.87;2.70;;;15.70;50.10;;;;;;5070014;28;20203;-80
2022/05/28 04:06:30;;;;;;;7.47;2.20;;;15.60;51.40;;;;;;5070362;28;20219;-83
2022/05/28 04:08:56;;;;;;;2.17;1.93;;;15.40;52.30;;;;;;5071368;28;20190;-82
2022/05/28 04:11:22;;;;;;;4.50;2.40;;;15.20;53.50;;;;;;5073570;28;20188;-81
2022/05/28 04:13:48;;;;;;;4.10;2.10;;;15.20;53.20;;;;;;5057907;28;20657;-81
2022/05/28 04:16:14;;;;;;;3.00;2.27;;;15.10;53.40;;;;;;5070092;28;20775;-81
2022/05/28 04:18:40;;;;;;;3.77;2.90;;;15.20;54.30;;;;;;5074407;28;20191;-83
2022/05/28 04:21:07;;;;;;;4.53;2.53;;;15.20;55.00;;;;;;5068114;28;20231;-82
2022/05/28 04:23:33;;;;;;;5.03;2.43;;;15.10;54.70;;;;;;5072652;28;20180;-82
2022/05/28 04:25:58;;;;;;;3.53;2.33;;;15.00;55.50;;;;;;5068027;28;20214;-82
2022/05/28 04:28:24;;;;;;;3.93;2.37;;;14.70;55.80;;;;;;5062808;28;20662;-81
2022/05/28 04:30:50;;;;;;;6.43;2.70;;;14.50;57.50;;;;;;5078204;28;20372;-81
2022/05/28 04:33:15;;;;;;;6.00;2.37;;;14.40;58.90;;;;;;5072928;28;20625;-82
2022/05/28 04:35:41;;;;;;;5.87;2.33;;;14.30;60.30;;;;;;5068195;28;20606;-82
2022/05/28 04:38:07;;;;;;;5.13;2.67;;;14.30;60.30;;;;;;5054808;28;20328;-81
2022/05/28 04:40:32;;;;;;;3.87;2.40;;;14.30;60.80;;;;;;5077863;28;20294;-81
2022/05/28 04:42:58;;;;;;;3.43;2.27;;;14.40;61.30;;;;;;5070777;28;20211;-83
2022/05/28 04:45:24;;;;;;;3.23;2.20;;;14.50;61.50;;;;;;5037819;28;20239;-81
2022/05/28 04:47:49;;;;;;;5.10;2.30;;;14.50;61.20;;;;;;5077033;28;20200;-81
2022/05/28 04:50:15;;;;;;;4.33;2.40;;;14.60;60.40;;;;;;5074355;28;20277;-83
2022/05/28 04:52:41;;;;;;;3.87;2.27;;;14.60;60.60;;;;;;5077631;28;20187;-80
2022/05/28 04:55:09;;;;;;;4.43;2.53;;;14.70;60.50;;;;;;5071231;28;20193;-83
2022/05/28 04:57:35;;;;;;;5.53;2.70;;;14.70;61.80;;;;;;5073829;28;20210;-80
2022/05/28 05:00:01;;;;;;;5.53;2.60;;;14.90;61.30;;;;;;5043167;28;20290;-80
2022/05/28 05:02:27;;;;;;;4.90;2.67;;;14.90;61.30;;;;;;5057636;28;20218;-80
2022/05/28 05:04:57;;;;;;;4.33;2.50;;;15.10;60.20;;;;;;5075836;28;20199;-82
2022/05/28 05:07:23;;;;;;;12.73;3.00;;;15.00;60.20;;;;;;5077878;28;20206;-82
2022/05/28 05:09:49;;;;;;;4.53;2.50;;;14.90;59.90;;;;;;5073345;28;20223;-82
2022/05/28 05:12:15;;;;;;;4.43;2.83;;;14.80;61.00;;;;;;5070223;28;20185;-82
2022/05/28 05:14:41;;;;;;;4.93;2.60;;;14.90;60.60;;;;;;5074273;28;20200;-82
2022/05/28 05:17:07;;;;;;;4.23;2.30;;;14.80;62.00;;;;;;5074710;28;20238;-83
2022/05/28 05:19:32;;;;;;;7.20;2.60;;;14.80;62.20;;;;;;5072743;28;20618;-82
2022/05/28 05:21:58;;;;;;;7.60;2.53;;;14.90;61.30;;;;;;5073384;28;20222;-83
2022/05/28 05:24:24;;;;;;;5.07;2.70;;;15.00;62.20;;;;;;5074053;28;20193;-82
2022/05/28 05:26:50;;;;;;;5.67;2.63;;;15.10;62.30;;;;;;5072349;28;20277;-83
2022/05/28 05:29:16;;;;;;;6.33;3.20;;;15.20;61.40;;;;;;5070634;28;20194;-81
2022/05/28 05:31:42;;;;;;;4.47;2.70;;;15.30;59.10;;;;;;5075483;28;20198;-82
2022/05/28 05:34:08;;;;;;;7.10;2.57;;;15.20;57.20;;;;;;5073809;28;20193;-82
2022/05/28 05:36:35;;;;;;;6.33;2.50;;;15.10;56.20;;;;;;5074227;28;20195;-82
2022/05/28 05:39:01;;;;;;;5.03;2.73;;;15.10;57.50;;;;;;5071581;28;20194;-83
2022/05/28 05:41:26;;;;;;;6.40;2.40;;;15.20;58.20;;;;;;5075144;28;20190;-83
2022/05/28 05:43:52;;;;;;;5.50;2.27;;;15.10;56.60;;;;;;5052579;28;20203;-82
2022/05/28 05:46:18;;;;;;;6.17;2.77;;;15.10;56.70;;;;;;5075706;28;20199;-82
2022/05/28 05:48:44;;;;;;;5.67;3.07;;;15.10;56.90;;;;;;5074665;28;20260;-82
2022/05/28 05:51:16;;;;;;;5.73;2.77;;;15.20;57.30;;;;;;5081427;28;20712;-82
2022/05/28 05:53:42;;;;;;;4.83;2.70;;;15.00;57.20;;;;;;5073342;28;20189;-83
2022/05/28 05:56:08;;;;;;;3.93;2.10;;;15.20;55.50;;;;;;5073946;28;20241;-83
2022/05/28 05:58:36;;;;;;;5.83;2.60;;;15.20;55.10;;;;;;5074079;28;20306;-82
2022/05/28 06:01:03;;;;;;;4.60;2.20;;;15.20;53.10;;;;;;5073951;28;20211;-83
2022/05/28 06:03:29;;;;;;;5.23;2.10;;;15.30;53.90;;;;;;5059555;28;20207;-83
2022/05/28 06:05:59;;;;;;;6.27;2.60;;;15.20;52.10;;;;;;5076659;28;20191;-81
2022/05/28 06:08:26;;;;;;;6.93;2.73;;;15.30;52.90;;;;;;5061372;28;20195;-83
2022/05/28 06:10:52;;;;;;;5.07;2.70;;;15.30;54.30;;;;;;5079150;28;20400;-81
2022/05/28 06:13:18;;;;;;;6.53;2.60;;;15.30;52.20;;;;;;5076775;28;20690;-82
2022/05/28 06:15:43;;;;;;;3.67;2.23;;;15.40;51.50;;;;;;5071395;28;20217;-83
2022/05/28 06:18:09;;;;;;;5.43;2.50;;;15.30;51.50;;;;;;5071111;28;20590;-82
2022/05/28 06:20:35;;;;;;;6.50;2.40;;;15.30;51.10;;;;;;5056106;28;20300;-82
2022/05/28 06:23:02;;;;;;;6.37;2.30;;;15.40;49.60;;;;;;5068638;28;20188;-83
2022/05/28 06:25:28;;;;;;;3.57;2.07;;;15.40;50.80;;;;;;5066641;28;20184;-82
2022/05/28 06:27:54;;;;;;;5.73;2.10;;;15.30;50.80;;;;;;5070958;28;20191;-83
2022/05/28 06:30:19;;;;;;;4.40;2.13;;;15.30;50.30;;;;;;5067990;28;20222;-82
2022/05/28 06:32:45;;;;;;;2.73;2.10;;;15.40;50.20;;;;;;5070867;28;20201;-82
2022/05/28 06:35:11;;;;;;;5.83;2.60;;;15.50;50.30;;;;;;5053634;28;20260;-83
2022/05/28 06:37:36;;;;;;;4.83;2.23;;;15.60;49.90;;;;;;5076917;28;20238;-82
2022/05/28 06:40:03;;;;;;;4.17;2.37;;;15.60;50.60;;;;;;5072027;28;20212;-82
2022/05/28 06:42:28;;;;;;;3.93;1.90;;;15.60;50.00;;;;;;5076266;28;20672;-83
2022/05/28 06:44:55;;;;;;;6.03;2.23;;;15.70;49.00;;;;;;5060873;28;20198;-83
2022/05/28 06:47:21;;;;;;;5.57;2.57;;;15.70;49.50;;;;;;5076388;28;20236;-82
2022/05/28 06:51:01;;;;;;;6.77;2.60;;;15.60;48.50;;;;;;5074774;28;20226;-83
2022/05/28 06:52:33;;;;;;;5.80;2.40;;;15.70;47.90;;;;;;5067572;28;20297;-81
2022/05/28 06:54:59;;;;;;;4.77;2.13;;;15.70;48.30;;;;;;5076189;28;20460;-82
2022/05/28 06:57:24;;;;;;;3.90;2.50;;;15.60;48.80;;;;;;5068087;28;20697;-82
2022/05/28 06:59:50;;;;;;;6.33;2.77;;;15.50;50.60;;;;;;5076753;28;20209;-82
2022/05/28 07:02:16;;;;;;;4.77;2.50;;;15.60;49.50;;;;;;5075906;28;20191;-83
2022/05/28 07:04:41;;;;;;;4.60;2.57;;;15.70;49.20;;;;;;5077970;28;20176;-83
2022/05/28 07:07:07;;;;;;;7.50;2.50;;;15.80;47.60;;;;;;5069056;28;20200;-83
2022/05/28 07:09:33;;;;;;;4.03;2.23;;;16.00;48.90;;;;;;5066173;28;20375;-82
2022/05/28 07:11:58;;;;;;;13.33;2.80;;;16.10;48.30;;;;;;5074838;28;20191;-82
2022/05/28 07:14:24;;;;;;;5.73;2.50;;;16.10;48.00;;;;;;5057526;28;20249;-83
2022/05/28 07:16:49;;;;;;;4.00;2.37;;;16.10;48.00;;;;;;5069654;28;20215;-83
2022/05/28 07:19:15;;;;;;;5.57;2.70;;;16.20;48.10;;;;;;5076334;28;20279;-83
2022/05/28 07:21:41;;;;;;;4.23;2.13;;;16.20;46.60;;;;;;5073739;28;20211;-82
2022/05/28 07:24:06;;;;;;;5.13;2.17;;;16.00;48.40;;;;;;5070802;28;20241;-83
2022/05/28 07:26:32;;;;;;;5.07;2.37;;;16.00;47.70;;;;;;5064678;28;20206;-84
2022/05/28 07:28:58;;;;;;;3.10;2.37;;;16.20;48.30;;;;;;5069860;28;20193;-83
2022/05/28 07:31:24;;;;;;;3.33;2.30;;;16.30;47.10;;;;;;5068662;28;20576;-82
2022/05/28 07:33:50;;;;;;;5.47;2.03;;;16.40;46.90;;;;;;5075283;28;20762;-82
2022/05/28 07:36:19;;;;;;;8.43;2.47;;;16.50;44.00;;;;;;5069453;28;20182;-82
2022/05/28 07:38:45;;;;;;;4.97;2.37;;;16.40;44.20;;;;;;5071241;28;20243;-83
2022/05/28 07:41:17;;;;;;;4.73;2.37;;;16.50;45.40;;;;;;5070469;28;20265;-83
2022/05/28 07:43:43;;;;;;;3.37;2.10;;;16.50;44.50;;;;;;5070171;28;20187;-83
2022/05/28 07:46:17;;;;;;;4.53;2.43;;;16.70;45.20;;;;;;5073925;28;20230;-82
2022/05/28 07:48:43;;;;;;;3.43;2.13;;;16.70;44.70;;;;;;5071325;28;20176;-83
2022/05/28 07:51:09;;;;;;;2.97;1.97;;;16.70;44.70;;;;;;5067787;28;20212;-83
2022/05/28 07:53:35;;;;;;;4.13;2.30;;;16.70;45.20;;;;;;5073220;28;20184;-83
2022/05/28 07:56:02;;;;;;;4.27;2.43;;;16.90;43.70;;;;;;5072681;28;20753;-82
2022/05/28 07:58:28;;;;;;;3.93;2.13;;;16.80;44.00;;;;;;5078650;28;20192;-80
2022/05/28 08:00:55;;;;;;;4.97;2.20;;;16.80;44.90;;;;;;5061991;28;20209;-82
2022/05/28 08:03:20;;;;;;;3.63;2.63;;;16.90;43.60;;;;;;5061590;28;20190;-82
2022/05/28 08:05:48;;;;;;;6.87;2.67;;;17.00;43.10;;;;;;5064228;28;20184;-83
2022/05/28 08:08:15;;;;;;;4.63;2.33;;;17.00;44.40;;;;;;5086271;28;20183;-83
2022/05/28 08:10:41;;;;;;;2.70;2.20;;;17.00;44.60;;;;;;5086461;28;20194;-83
2022/05/28 08:13:10;;;;;;;9.87;2.80;;;17.10;42.60;;;;;;5085278;28;20346;-83
2022/05/28 08:15:38;;;;;;;5.17;2.20;;;17.20;43.30;;;;;;5076387;28;20188;-83
2022/05/28 08:18:04;;;;;;;4.53;2.23;;;17.20;43.30;;;;;;5082697;28;20202;-83
2022/05/28 08:23:15;;;;;;;4.50;2.20;;;17.10;45.00;;;;;;5082728;28;20215;-83
2022/05/28 08:25:41;;;;;;;5.20;1.90;;;17.30;43.40;;;;;;5078950;28;20184;-82
2022/05/28 08:28:11;;;;;;;4.87;2.53;;;17.40;43.80;;;;;;5080226;28;20245;-84
2022/05/28 08:30:39;;;;;;;3.50;2.07;;;17.40;43.60;;;;;;5082361;28;20242;-84
2022/05/28 08:33:06;;;;;;;3.67;2.33;;;17.40;43.60;;;;;;5077542;28;20202;-83
2022/05/28 08:35:32;;;;;;;5.17;2.40;;;17.40;42.40;;;;;;5081758;28;20188;-83
2022/05/28 08:38:13;;;;;;;3.23;2.00;;;17.30;41.90;;;;;;5088078;28;20218;-83
2022/05/28 08:41:05;;;;;;;4.00;2.00;;;17.30;42.20;;;;;;5078735;28;20200;-84
2022/05/28 08:43:34;;;;;;;4.27;2.00;;;17.20;42.80;;;;;;5061496;28;20212;-84
2022/05/28 08:46:00;;;;;;;5.50;2.40;;;17.40;44.40;;;;;;5083616;28;20198;-82
2022/05/28 08:48:39;;;;;;;2.70;1.90;;;17.70;41.00;;;;;;5090292;28;20193;-82
2022/05/28 08:51:09;;;;;;;9.30;2.77;;;18.00;41.40;;;;;;5080549;28;20197;-84
2022/05/28 08:53:41;;;;;;;6.87;2.40;;;17.90;42.20;;;;;;5079475;28;20182;-83
2022/05/28 08:56:08;;;;;;;3.90;2.20;;;17.70;42.50;;;;;;5085761;28;20194;-84
2022/05/28 08:58:35;;;;;;;5.07;2.30;;;17.90;42.60;;;;;;5086781;28;20407;-84
2022/05/28 09:01:14;;;;;;;3.77;2.30;;;18.00;41.70;;;;;;5081216;28;20216;-83
2022/05/28 09:03:50;;;;;;;4.10;2.30;;;18.30;40.30;;;;;;5077666;28;20189;-84
2022/05/28 09:06:29;;;;;;;8.57;2.87;;;18.40;40.30;;;;;;5084228;28;20271;-83
2022/05/28 09:08:58;;;;;;;5.38;2.33;;;18.40;40.60;;;;;;5081105;28;20189;-84
2022/05/28 09:11:32;;;;;;;3.53;2.10;;;18.70;40.30;;;;;;5092585;28;20219;-83
2022/05/28 09:14:08;;;;;;;4.15;2.40;;;18.80;38.80;;;;;;5082460;28;20673;-82
2022/05/28 09:16:36;;;;;;;5.82;2.10;;;19.10;38.30;;;;;;5082977;28;20188;-84
2022/05/28 09:19:07;;;;;;;3.97;2.22;;;19.50;38.50;;;;;;5086389;28;20183;-83
2022/05/28 09:21:33;;;;;;;5.75;2.38;;;19.50;38.10;;;;;;5079078;28;20188;-83
2022/05/28 09:24:06;;;;;;;4.05;2.40;;;19.60;37.10;;;;;;5083199;28;20203;-83
2022/05/28 09:27:10;;;;;;;5.15;2.47;;;19.70;37.20;;;;;;5077767;28;20179;-82
2022/05/28 09:30:03;;;;;;;6.93;2.38;;;20.00;37.10;;;;;;5048502;28;20248;-83
2022/05/28 09:32:46;;;;;;;3.20;2.30;;;20.10;37.90;;;;;;5081066;28;20209;-83
2022/05/28 09:35:21;;;;;;;3.95;1.95;;;20.10;37.30;;;;;;5072579;28;20195;-83
2022/05/28 09:38:14;;;;;;;5.18;2.42;;;19.80;37.20;;;;;;5077760;28;20368;-83
2022/05/28 09:41:02;;;;;;;3.20;2.30;;;20.30;36.10;;;;;;5072244;28;20698;-82
2022/05/28 09:43:49;;;;;;;8.13;2.53;;;20.00;36.90;;;;;;5060481;28;20287;-82
2022/05/28 09:46:30;;;;;;;7.90;2.53;;;19.90;38.00;;;;;;5081206;28;20184;-82
2022/05/28 09:49:05;;;;;;;4.40;2.58;;;19.80;37.70;;;;;;5072549;28;20638;-83
2022/05/28 09:51:33;;;;;;;4.78;2.28;;;19.70;37.90;;;;;;5081064;28;20464;-82
2022/05/28 09:54:16;;;;;;;3.72;2.67;;;19.90;38.60;;;;;;5056747;28;20405;-82
2022/05/28 09:57:03;;;;;;;3.83;2.10;;;20.00;38.40;;;;;;5077501;28;20211;-81
2022/05/28 09:59:35;;;;;;;7.18;2.83;;;20.10;37.90;;;;;;5071950;28;20203;-82
2022/05/28 10:02:25;;;;;;;5.97;2.67;;;20.00;37.20;;;;;;5063123;28;20195;-83
2022/05/28 10:05:02;;;;;;;3.97;2.28;;;19.80;37.30;;;;;;5066301;28;20267;-82
2022/05/28 10:07:29;;;;;;;7.72;2.92;;;19.60;37.10;;;;;;5070500;28;20199;-82
2022/05/28 10:09:55;;;;;;;7.10;3.08;;;19.70;37.40;;;;;;5076428;28;20214;-82
2022/05/28 10:12:27;;;;;;;4.22;2.20;;;19.70;36.80;;;;;;5065134;28;20194;-83
2022/05/28 10:15:10;;;;;;;2.38;2.03;;;19.60;36.80;;;;;;5056044;28;20675;-82
2022/05/28 10:17:36;;;;;;;5.63;2.67;;;19.60;37.60;;;;;;5075786;28;20208;-82
2022/05/28 10:20:12;;;;;;;6.03;2.50;;;20.40;36.30;;;;;;5067851;28;20226;-82
2022/05/28 10:22:38;;;;;;;5.00;2.75;;;20.90;35.90;;;;;;5071174;28;20179;-83
2022/05/28 10:25:20;;;;;;;6.07;2.60;;;21.20;35.40;;;;;;5069186;28;20229;-83
2022/05/28 10:27:52;;;;;;;4.20;2.35;;;21.40;34.60;;;;;;5064032;28;20644;-82
2022/05/28 10:30:32;;;;;;;5.90;2.35;;;21.20;34.10;;;;;;5054296;28;20229;-82
2022/05/28 10:33:03;;;;;;;4.30;2.20;;;21.50;33.60;;;;;;5064034;28;20237;-83
2022/05/28 10:35:31;;;;;;;4.97;2.20;;;21.50;34.00;;;;;;5066231;28;20186;-82
2022/05/28 10:38:15;;;;;;;3.92;2.40;;;21.40;32.50;;;;;;5050533;28;20236;-82
2022/05/28 10:40:54;;;;;;;4.75;2.40;;;21.70;31.60;;;;;;5072609;28;20205;-82
2022/05/28 10:43:38;;;;;;;3.97;2.40;;;22.40;30.80;;;;;;5077684;28;20187;-83
2022/05/28 10:46:25;;;;;;;4.30;2.25;;;22.70;30.60;;;;;;5075414;28;20270;-82
2022/05/28 10:48:50;;;;;;;5.32;2.40;;;22.20;32.00;;;;;;5054084;28;20238;-82
2022/05/28 10:51:34;;;;;;;4.97;2.47;;;22.20;32.50;;;;;;5062858;28;20686;-83
2022/05/28 10:54:24;;;;;;;4.22;2.60;;;22.30;34.10;;;;;;5065746;28;20664;-83
2022/05/28 10:57:01;;;;;;;3.67;2.20;;;21.80;33.80;;;;;;5066425;28;20214;-83
2022/05/28 10:59:41;;;;;;;4.47;2.50;;;21.20;35.30;;;;;;5077449;28;20199;-82
2022/05/28 11:02:42;;;;;;;3.92;2.30;;;20.40;35.60;;;;;;5066838;28;20186;-83
2022/05/28 11:05:38;;;;;;;5.70;2.40;;;20.60;35.20;;;;;;5067447;28;20180;-83
2022/05/28 11:08:22;;;;;;;3.38;2.20;;;20.80;35.50;;;;;;5071758;28;20217;-84
2022/05/28 11:11:06;;;;;;;4.72;2.17;;;21.00;33.50;;;;;;5066230;28;20205;-85
2022/05/28 11:14:07;;;;;;;6.70;2.38;;;21.10;32.80;;;;;;5058273;28;20186;-83
2022/05/28 11:17:17;;;;;;;4.40;2.50;;;20.90;33.30;;;;;;5034929;28;20288;-83
2022/05/28 11:20:25;;;;;;;2.45;2.25;;;21.20;33.10;;;;;;5054317;28;20715;-83
2022/05/28 11:23:11;;;;;;;4.50;2.28;;;21.70;31.70;;;;;;5066655;28;20658;-83
2022/05/28 11:26:15;;;;;;;2.75;2.03;;;22.30;31.00;;;;;;5075871;28;20629;-81
2022/05/28 11:28:51;;;;;;;3.88;2.40;;;23.00;31.20;;;;;;5070540;28;20182;-82
2022/05/28 11:31:41;;;;;;;3.22;2.28;;;23.30;30.00;;;;;;5067274;28;20909;-82
2022/05/28 11:34:22;;;;;;;3.63;2.20;;;22.60;31.30;;;;;;5059040;28;20191;-82
2022/05/28 11:36:58;;;;;;;3.13;2.33;;;22.50;31.30;;;;;;5064210;28;20205;-82
2022/05/28 11:39:39;;;;;;;4.50;2.65;;;22.50;30.50;;;;;;5072776;28;20235;-82
2022/05/28 11:42:18;;;;;;;4.50;2.63;;;22.20;31.30;;;;;;5073489;28;20182;-83
2022/05/28 11:44:52;;;;;;;3.60;2.55;;;22.50;31.50;;;;;;5066950;28;20190;-82
2022/05/28 11:47:41;;;;;;;4.18;2.80;;;23.00;29.40;;;;;;5066462;28;20188;-82
2022/05/28 11:53:35;;;;;;;4.30;2.63;;;23.20;29.70;;;;;;5066674;28;20194;-83
2022/05/28 11:56:07;;;;;;;3.28;2.38;;;23.50;29.30;;;;;;5070485;28;20206;-84
2022/05/28 11:58:37;;;;;;;4.00;2.45;;;23.40;29.40;;;;;;5067538;28;20207;-82
2022/05/28 12:01:10;;;;;;;3.88;2.35;;;23.60;29.20;;;;;;5064133;28;20570;-82
2022/05/28 12:03:36;;;;;;;3.13;2.60;;;23.60;28.90;;;;;;5066604;28;20181;-84
2022/05/28 12:06:02;;;;;;;7.30;2.45;;;23.80;28.70;;;;;;5052721;28;20206;-81
2022/05/28 12:08:55;;;;;;;6.30;2.55;;;23.90;29.00;;;;;;5071108;28;20192;-83
2022/05/28 12:11:27;;;;;;;4.00;2.50;;;23.80;28.60;;;;;;5072596;28;20204;-83
2022/05/28 12:13:59;;;;;;;3.42;2.30;;;23.90;29.30;;;;;;5074017;28;20195;-82
2022/05/28 12:16:40;;;;;;;4.32;2.28;;;23.70;29.10;;;;;;5051656;28;20401;-84
2022/05/28 12:19:22;;;;;;;3.05;2.42;;;22.90;31.50;;;;;;5072216;28;20218;-83
2022/05/28 12:21:50;;;;;;;2.60;2.28;;;22.10;30.80;;;;;;5076454;28;20201;-82
2022/05/28 12:24:18;;;;;;;4.93;2.33;;;21.60;32.20;;;;;;5071143;28;20199;-83
2022/05/28 12:29:54;;;;;;;4.43;2.33;;;21.30;31.80;;;;;;5078090;28;20207;-84
2022/05/28 12:32:24;;;;;;;3.17;2.40;;;21.50;34.20;;;;;;5077254;28;20195;-83
2022/05/28 12:35:00;;;;;;;4.50;2.38;;;21.40;33.50;;;;;;5076633;28;20198;-84
2022/05/28 12:37:34;;;;;;;4.43;2.17;;;21.60;32.20;;;;;;5082436;28;20224;-84
2022/05/28 12:40:06;;;;;;;4.35;2.42;;;21.20;33.60;;;;;;5069307;28;20416;-84
2022/05/28 12:42:32;;;;;;;5.10;2.25;;;21.10;32.80;;;;;;5070091;28;20244;-83
2022/05/28 12:45:15;;;;;;;3.30;2.17;;;20.80;33.90;;;;;;5051930;28;20214;-84
2022/05/28 12:47:41;;;;;;;3.28;2.00;;;20.80;33.40;;;;;;5067660;28;20189;-82
2022/05/28 12:50:19;;;;;;;3.83;2.20;;;20.90;33.00;;;;;;5075307;28;20218;-83
2022/05/28 12:53:13;;;;;;;6.32;2.40;;;20.60;33.40;;;;;;5073017;28;20180;-82
2022/05/28 12:55:39;;;;;;;2.15;1.83;;;20.60;34.40;;;;;;5066315;28;20232;-83
2022/05/28 12:58:11;;;;;;;6.40;2.53;;;20.90;34.70;;;;;;5075041;28;20247;-82
2022/05/28 13:00:54;;;;;;;4.68;2.40;;;21.20;33.10;;;;;;5075789;28;20223;-82
2022/05/28 13:03:25;;;;;;;3.90;2.30;;;21.50;32.30;;;;;;5074706;28;20190;-83
2022/05/28 13:06:03;;;;;;;3.78;2.42;;;21.80;32.30;;;;;;5079390;28;20217;-84
2022/05/28 13:08:32;;;;;;;2.95;2.08;;;22.20;31.80;;;;;;5075142;28;20198;-84
2022/05/28 13:11:06;;;;;;;5.30;2.28;;;22.10;31.40;;;;;;5083748;28;20206;-83
2022/05/28 13:13:43;;;;;;;4.53;2.20;;;21.70;32.10;;;;;;5074548;28;20208;-83
2022/05/28 13:16:32;;;;;;;4.60;2.10;;;22.20;32.00;;;;;;5072543;28;20188;-84